sensor_id;sensor_type;location;lat;lon;timestamp;pressure;altitude;pressure_sealevel;temperature;humidity
18858;BME280;9558;50.178;8.370;2023-03-05T00:01:37;98537.59;;;4.26;100.00
18858;BME280;9558;50.178;8.370;2023-03-05T00:04:04;98546.91;;;4.27;100.00
18858;BME280;9558;50.178;8.370;2023-03-05T00:06:33;98546.22;;;4.25;100.00
18858;BME280;9558;50.178;8.370;2023-03-05T00:09:00;98543.78;;;4.24;100.00
18858;BME280;9558;50.178;8.370;2023-03-05T00:11:28;98540.66;;;4.20;100.00
18858;BME280;9558;50.178;8.370;2023-03-05T00:13:56;98536.47;;;4.19;100.00
18858;BME280;9558;50.178;8.370;2023-03-05T00:16:25;98535.09;;;4.15;100.00
18858;BME280;9558;50.178;8.370;2023-03-05T00:18:53;98529.97;;;4.15;100.00
18858;BME280;9558;50.178;8.370;2023-03-05T00:21:22;98535.88;;;4.15;100.00
18858;BME280;9558;50.178;8.370;2023-03-05T00:23:49;98536.72;;;4.16;100.00
18858;BME280;9558;50.178;8.370;2023-03-05T00:26:17;98532.41;;;4.17;100.00
18858;BME280;9558;50.178;8.370;2023-03-05T00:28:44;98535.88;;;4.15;100.00
18858;BME280;9558;50.178;8.370;2023-03-05T00:31:14;98531.59;;;4.16;100.00
18858;BME280;9558;50.178;8.370;2023-03-05T00:33:42;98534.16;;;4.16;100.00
18858;BME280;9558;50.178;8.370;2023-03-05T00:36:09;98533.47;;;4.14;100.00
18858;BME280;9558;50.178;8.370;2023-03-05T00:38:36;98536.97;;;4.13;100.00
18858;BME280;9558;50.178;8.370;2023-03-05T00:41:02;98535.47;;;4.10;100.00
18858;BME280;9558;50.178;8.370;2023-03-05T00:43:29;98539.75;;;4.10;100.00
18858;BME280;9558;50.178;8.370;2023-03-05T00:45:55;98530.22;;;4.12;100.00
18858;BME280;9558;50.178;8.370;2023-03-05T00:48:22;98523.59;;;4.09;100.00
18858;BME280;9558;50.178;8.370;2023-03-05T00:50:51;98520.22;;;4.09;100.00
18858;BME280;9558;50.178;8.370;2023-03-05T00:53:17;98525.56;;;4.06;100.00
18858;BME280;9558;50.178;8.370;2023-03-05T00:55:44;98517.22;;;4.04;100.00
18858;BME280;9558;50.178;8.370;2023-03-05T00:58:11;98513.72;;;4.05;100.00
18858;BME280;9558;50.178;8.370;2023-03-05T01:00:37;98513.97;;;4.02;100.00
18858;BME280;9558;50.178;8.370;2023-03-05T01:03:04;98517.22;;;4.04;100.00
18858;BME280;9558;50.178;8.370;2023-03-05T01:05:30;98508.03;;;4.01;100.00
18858;BME280;9558;50.178;8.370;2023-03-05T01:07:58;98507.22;;;4.01;100.00
18858;BME280;9558;50.178;8.370;2023-03-05T01:10:27;98508.97;;;4.00;100.00
18858;BME280;9558;50.178;8.370;2023-03-05T01:12:54;98504.78;;;3.99;100.00
18858;BME280;9558;50.178;8.370;2023-03-05T01:15:22;98502.38;;;3.97;100.00
18858;BME280;9558;50.178;8.370;2023-03-05T01:17:49;98500.72;;;3.96;100.00
18858;BME280;9558;50.178;8.370;2023-03-05T01:20:16;98496.53;;;3.95;100.00
18858;BME280;9558;50.178;8.370;2023-03-05T01:22:44;98497.50;;;3.94;100.00
18858;BME280;9558;50.178;8.370;2023-03-05T01:25:13;98492.38;;;3.94;100.00
18858;BME280;9558;50.178;8.370;2023-03-05T01:27:39;98484.44;;;3.97;100.00
18858;BME280;9558;50.178;8.370;2023-03-05T01:30:07;98483.72;;;3.95;100.00
18858;BME280;9558;50.178;8.370;2023-03-05T01:32:35;98471.06;;;3.94;100.00
18858;BME280;9558;50.178;8.370;2023-03-05T01:35:03;98474.81;;;3.90;100.00
18858;BME280;9558;50.178;8.370;2023-03-05T01:37:30;98475.63;;;3.90;100.00
18858;BME280;9558;50.178;8.370;2023-03-05T01:39:56;98472.13;;;3.91;100.00
18858;BME280;9558;50.178;8.370;2023-03-05T01:42:24;98466.19;;;3.91;100.00
18858;BME280;9558;50.178;8.370;2023-03-05T01:45:02;98470.50;;;3.90;100.00
18858;BME280;9558;50.178;8.370;2023-03-05T01:47:29;98467.25;;;3.88;100.00
18858;BME280;9558;50.178;8.370;2023-03-05T01:49:56;98455.38;;;3.87;99.88
18858;BME280;9558;50.178;8.370;2023-03-05T01:52:23;98458.63;;;3.89;99.85
18858;BME280;9558;50.178;8.370;2023-03-05T01:54:55;98456.22;;;3.88;99.44
18858;BME280;9558;50.178;8.370;2023-03-05T01:57:25;98455.38;;;3.87;99.00
18858;BME280;9558;50.178;8.370;2023-03-05T01:59:55;98457.25;;;3.85;99.10
18858;BME280;9558;50.178;8.370;2023-03-05T02:02:22;98446.34;;;3.83;98.80
18858;BME280;9558;50.178;8.370;2023-03-05T02:04:50;98442.81;;;3.84;99.17
18858;BME280;9558;50.178;8.370;2023-03-05T02:07:18;98437.84;;;3.83;99.03
18858;BME280;9558;50.178;8.370;2023-03-05T02:09:46;98437.84;;;3.83;99.18
18858;BME280;9558;50.178;8.370;2023-03-05T02:12:13;98433.69;;;3.82;99.21
18858;BME280;9558;50.178;8.370;2023-03-05T02:14:41;98437.97;;;3.81;99.69
18858;BME280;9558;50.178;8.370;2023-03-05T02:17:11;98439.59;;;3.82;99.20
18858;BME280;9558;50.178;8.370;2023-03-05T02:19:49;98431.66;;;3.85;99.45
18858;BME280;9558;50.178;8.370;2023-03-05T02:22:19;98426.09;;;3.80;99.62
18858;BME280;9558;50.178;8.370;2023-03-05T02:24:46;98424.63;;;3.77;99.64
18858;BME280;9558;50.178;8.370;2023-03-05T02:27:13;98424.38;;;3.80;99.72
18858;BME280;9558;50.178;8.370;2023-03-05T02:29:41;98420.69;;;3.73;99.92
18858;BME280;9558;50.178;8.370;2023-03-05T02:32:08;98420.81;;;3.72;99.78
18858;BME280;9558;50.178;8.370;2023-03-05T02:34:35;98417.41;;;3.71;99.97
18858;BME280;9558;50.178;8.370;2023-03-05T02:37:01;98418.50;;;3.69;100.00
18858;BME280;9558;50.178;8.370;2023-03-05T02:39:30;98419.69;;;3.65;100.00
18858;BME280;9558;50.178;8.370;2023-03-05T02:41:57;98416.16;;;3.66;100.00
18858;BME280;9558;50.178;8.370;2023-03-05T02:44:24;98411.31;;;3.62;99.96
18858;BME280;9558;50.178;8.370;2023-03-05T02:46:51;98419.00;;;3.62;100.00
18858;BME280;9558;50.178;8.370;2023-03-05T02:49:18;98413.19;;;3.60;100.00
18858;BME280;9558;50.178;8.370;2023-03-05T02:51:44;98408.19;;;3.59;100.00
18858;BME280;9558;50.178;8.370;2023-03-05T02:54:11;98415.06;;;3.58;100.00
18858;BME280;9558;50.178;8.370;2023-03-05T02:56:38;98408.06;;;3.60;100.00
18858;BME280;9558;50.178;8.370;2023-03-05T02:59:06;98399.44;;;3.61;100.00
18858;BME280;9558;50.178;8.370;2023-03-05T03:01:32;98409.94;;;3.58;100.00
18858;BME280;9558;50.178;8.370;2023-03-05T03:03:59;98404.81;;;3.58;100.00
18858;BME280;9558;50.178;8.370;2023-03-05T03:06:25;98400.53;;;3.59;100.00
18858;BME280;9558;50.178;8.370;2023-03-05T03:08:52;98391.88;;;3.60;100.00
18858;BME280;9558;50.178;8.370;2023-03-05T03:11:18;98392.72;;;3.60;100.00
18858;BME280;9558;50.178;8.370;2023-03-05T03:13:47;98400.53;;;3.59;100.00
18858;BME280;9558;50.178;8.370;2023-03-05T03:16:14;98398.09;;;3.57;100.00
18858;BME280;9558;50.178;8.370;2023-03-05T03:18:41;98385.97;;;3.59;100.00
18858;BME280;9558;50.178;8.370;2023-03-05T03:21:08;98391.34;;;3.56;100.00
18858;BME280;9558;50.178;8.370;2023-03-05T03:23:41;98389.34;;;3.60;100.00
18858;BME280;9558;50.178;8.370;2023-03-05T03:26:07;98385.31;;;3.57;100.00
18858;BME280;9558;50.178;8.370;2023-03-05T03:28:34;98386.22;;;3.56;100.00
18858;BME280;9558;50.178;8.370;2023-03-05T03:31:02;98387.16;;;3.55;100.00
18858;BME280;9558;50.178;8.370;2023-03-05T03:33:28;98382.97;;;3.54;100.00
18858;BME280;9558;50.178;8.370;2023-03-05T03:35:55;98382.97;;;3.54;100.00
18858;BME280;9558;50.178;8.370;2023-03-05T03:38:21;98382.75;;;3.57;100.00
18858;BME280;9558;50.178;8.370;2023-03-05T03:40:48;98381.91;;;3.57;100.00
18858;BME280;9558;50.178;8.370;2023-03-05T03:43:14;98382.97;;;3.54;100.00
18858;BME280;9558;50.178;8.370;2023-03-05T03:45:42;98384.72;;;3.54;99.77
18858;BME280;9558;50.178;8.370;2023-03-05T03:48:10;98373.25;;;3.48;99.91
18858;BME280;9558;50.178;8.370;2023-03-05T03:50:37;98366.50;;;3.47;99.61
18858;BME280;9558;50.178;8.370;2023-03-05T03:53:04;98374.41;;;3.44;99.33
18858;BME280;9558;50.178;8.370;2023-03-05T03:55:30;98373.50;;;3.45;99.62
18858;BME280;9558;50.178;8.370;2023-03-05T03:57:57;98370.22;;;3.43;99.52
18858;BME280;9558;50.178;8.370;2023-03-05T04:00:23;98372.00;;;3.42;99.71
18858;BME280;9558;50.178;8.370;2023-03-05T04:02:50;98375.34;;;3.43;99.52
18858;BME280;9558;50.178;8.370;2023-03-05T04:05:18;98368.63;;;3.42;99.43
18858;BME280;9558;50.178;8.370;2023-03-05T04:07:44;98373.75;;;3.42;99.49
18858;BME280;9558;50.178;8.370;2023-03-05T04:10:11;98373.03;;;3.40;98.98
18858;BME280;9558;50.178;8.370;2023-03-05T04:12:38;98363.78;;;3.39;98.96
18858;BME280;9558;50.178;8.370;2023-03-05T04:15:07;98360.50;;;3.37;99.08
18858;BME280;9558;50.178;8.370;2023-03-05T04:17:34;98366.44;;;3.37;99.01
18858;BME280;9558;50.178;8.370;2023-03-05T04:20:01;98364.81;;;3.36;98.35
18858;BME280;9558;50.178;8.370;2023-03-05T04:22:30;98365.63;;;3.37;98.33
18858;BME280;9558;50.178;8.370;2023-03-05T04:24:57;98360.75;;;3.34;98.55
18858;BME280;9558;50.178;8.370;2023-03-05T04:27:23;98362.38;;;3.35;98.30
18858;BME280;9558;50.178;8.370;2023-03-05T04:29:51;98355.66;;;3.34;98.33
18858;BME280;9558;50.178;8.370;2023-03-05T04:32:17;98353.75;;;3.36;98.26
18858;BME280;9558;50.178;8.370;2023-03-05T04:34:47;98356.56;;;3.33;98.32
18858;BME280;9558;50.178;8.370;2023-03-05T04:37:14;98351.47;;;3.33;98.14
18858;BME280;9558;50.178;8.370;2023-03-05T04:39:41;98352.41;;;3.32;97.94
18858;BME280;9558;50.178;8.370;2023-03-05T04:42:08;98342.19;;;3.32;97.82
18858;BME280;9558;50.178;8.370;2023-03-05T04:44:35;98343.78;;;3.33;97.60
18858;BME280;9558;50.178;8.370;2023-03-05T04:47:02;98340.28;;;3.34;97.83
18858;BME280;9558;50.178;8.370;2023-03-05T04:49:28;98345.41;;;3.34;97.46
18858;BME280;9558;50.178;8.370;2023-03-05T04:51:55;98338.66;;;3.33;97.13
18858;BME280;9558;50.178;8.370;2023-03-05T04:54:22;98332.88;;;3.31;97.18
18858;BME280;9558;50.178;8.370;2023-03-05T04:56:50;98337.28;;;3.28;97.03
18858;BME280;9558;50.178;8.370;2023-03-05T04:59:16;98333.94;;;3.28;97.18
18858;BME280;9558;50.178;8.370;2023-03-05T05:01:43;98326.38;;;3.26;96.59
18858;BME280;9558;50.178;8.370;2023-03-05T05:04:09;98324.75;;;3.25;96.66
18858;BME280;9558;50.178;8.370;2023-03-05T05:06:36;98321.41;;;3.25;96.67
18858;BME280;9558;50.178;8.370;2023-03-05T05:09:03;98325.13;;;3.21;96.77
18858;BME280;9558;50.178;8.370;2023-03-05T05:11:29;98320.81;;;3.21;96.44
18858;BME280;9558;50.178;8.370;2023-03-05T05:13:57;98317.84;;;3.16;96.38
18858;BME280;9558;50.178;8.370;2023-03-05T05:16:23;98318.09;;;3.13;96.46
18858;BME280;9558;50.178;8.370;2023-03-05T05:18:50;98312.97;;;3.13;96.39
18858;BME280;9558;50.178;8.370;2023-03-05T05:21:18;98317.25;;;3.13;96.59
18858;BME280;9558;50.178;8.370;2023-03-05T05:23:44;98306.50;;;3.09;96.71
18858;BME280;9558;50.178;8.370;2023-03-05T05:26:12;98303.22;;;3.07;97.24
18858;BME280;9558;50.178;8.370;2023-03-05T05:28:39;98309.97;;;3.08;96.79
18858;BME280;9558;50.178;8.370;2023-03-05T05:31:10;98306.75;;;3.06;96.91
18858;BME280;9558;50.178;8.370;2023-03-05T05:33:37;98299.06;;;3.06;97.11
18858;BME280;9558;50.178;8.370;2023-03-05T05:36:05;98304.19;;;3.06;97.46
18858;BME280;9558;50.178;8.370;2023-03-05T05:38:32;98305.09;;;3.05;97.18
18858;BME280;9558;50.178;8.370;2023-03-05T05:41:03;98302.56;;;3.05;97.23
18858;BME280;9558;50.178;8.370;2023-03-05T05:43:30;98312.06;;;3.03;97.82
18858;BME280;9558;50.178;8.370;2023-03-05T05:46:00;98305.50;;;3.00;97.64
18858;BME280;9558;50.178;8.370;2023-03-05T05:48:30;98309.66;;;3.01;97.75
18858;BME280;9558;50.178;8.370;2023-03-05T05:50:57;98305.38;;;3.02;97.62
18858;BME280;9558;50.178;8.370;2023-03-05T05:53:24;98312.06;;;3.03;97.87
18858;BME280;9558;50.178;8.370;2023-03-05T05:55:51;98315.59;;;3.02;97.79
18858;BME280;9558;50.178;8.370;2023-03-05T05:58:17;98310.47;;;3.02;97.39
18858;BME280;9558;50.178;8.370;2023-03-05T06:00:44;98303.72;;;3.01;97.44
18858;BME280;9558;50.178;8.370;2023-03-05T06:03:10;98308.84;;;3.01;97.50
18858;BME280;9558;50.178;8.370;2023-03-05T06:05:39;98306.16;;;3.02;97.09
18858;BME280;9558;50.178;8.370;2023-03-05T06:08:06;98306.28;;;3.01;97.42
18858;BME280;9558;50.178;8.370;2023-03-05T06:10:33;98312.31;;;3.00;97.35
18858;BME280;9558;50.178;8.370;2023-03-05T06:12:59;98305.63;;;2.99;96.90
18858;BME280;9558;50.178;8.370;2023-03-05T06:15:26;98312.31;;;3.00;97.46
18858;BME280;9558;50.178;8.370;2023-03-05T06:17:52;98304.78;;;2.98;96.95
18858;BME280;9558;50.178;8.370;2023-03-05T06:20:19;98302.34;;;2.97;97.14
18858;BME280;9558;50.178;8.370;2023-03-05T06:22:48;98303.97;;;2.98;96.66
18858;BME280;9558;50.178;8.370;2023-03-05T06:25:15;98299.91;;;2.95;97.08
18858;BME280;9558;50.178;8.370;2023-03-05T06:27:41;98302.34;;;2.97;96.84
18858;BME280;9558;50.178;8.370;2023-03-05T06:30:09;98297.25;;;2.97;96.58
18858;BME280;9558;50.178;8.370;2023-03-05T06:32:37;98299.00;;;2.96;96.18
18858;BME280;9558;50.178;8.370;2023-03-05T06:35:04;98303.97;;;2.98;96.09
18858;BME280;9558;50.178;8.370;2023-03-05T06:37:30;98303.97;;;2.98;95.75
18858;BME280;9558;50.178;8.370;2023-03-05T06:39:58;98306.41;;;2.99;95.51
18858;BME280;9558;50.178;8.370;2023-03-05T06:42:25;98301.31;;;2.99;95.72
18858;BME280;9558;50.178;8.370;2023-03-05T06:44:51;98299.53;;;3.00;96.05
18858;BME280;9558;50.178;8.370;2023-03-05T06:47:18;98295.94;;;3.02;95.92
18858;BME280;9558;50.178;8.370;2023-03-05T06:49:44;98303.47;;;3.04;95.36
18858;BME280;9558;50.178;8.370;2023-03-05T06:52:11;98305.91;;;3.05;95.82
18858;BME280;9558;50.178;8.370;2023-03-05T06:54:37;98303.22;;;3.07;95.69
18858;BME280;9558;50.178;8.370;2023-03-05T06:57:05;98306.50;;;3.09;95.88
18858;BME280;9558;50.178;8.370;2023-03-05T06:59:32;98306.22;;;3.12;95.28
18858;BME280;9558;50.178;8.370;2023-03-05T07:01:58;98309.47;;;3.14;95.76
18858;BME280;9558;50.178;8.370;2023-03-05T07:04:25;98310.16;;;3.16;95.28
18858;BME280;9558;50.178;8.370;2023-03-05T07:06:51;98306.44;;;3.20;95.54
18858;BME280;9558;50.178;8.370;2023-03-05T07:09:18;98306.31;;;3.22;95.34
18858;BME280;9558;50.178;8.370;2023-03-05T07:11:45;98307.09;;;3.22;95.75
18858;BME280;9558;50.178;8.370;2023-03-05T07:14:13;98306.84;;;3.25;95.47
18858;BME280;9558;50.178;8.370;2023-03-05T07:16:39;98307.44;;;3.29;95.30
18858;BME280;9558;50.178;8.370;2023-03-05T07:19:06;98304.47;;;3.34;95.37
18858;BME280;9558;50.178;8.370;2023-03-05T07:21:35;98309.34;;;3.37;95.62
18858;BME280;9558;50.178;8.370;2023-03-05T07:24:02;98303.97;;;3.40;95.51
18858;BME280;9558;50.178;8.370;2023-03-05T07:26:30;98305.59;;;3.41;95.91
18858;BME280;9558;50.178;8.370;2023-03-05T07:28:58;98309.66;;;3.43;95.34
18858;BME280;9558;50.178;8.370;2023-03-05T07:31:26;98307.50;;;3.49;95.80
18858;BME280;9558;50.178;8.370;2023-03-05T07:33:56;98306.47;;;3.51;96.00
18858;BME280;9558;50.178;8.370;2023-03-05T07:36:24;98309.72;;;3.53;96.00
18858;BME280;9558;50.178;8.370;2023-03-05T07:38:50;98312.94;;;3.55;95.68
18858;BME280;9558;50.178;8.370;2023-03-05T07:41:17;98307.84;;;3.55;95.56
18858;BME280;9558;50.178;8.370;2023-03-05T07:43:46;98308.66;;;3.56;95.58
18858;BME280;9558;50.178;8.370;2023-03-05T07:46:15;98299.22;;;3.56;96.32
18858;BME280;9558;50.178;8.370;2023-03-05T07:48:43;98295.03;;;3.55;95.71
18858;BME280;9558;50.178;8.370;2023-03-05T07:51:13;98300.84;;;3.57;96.05
18858;BME280;9558;50.178;8.370;2023-03-05T07:53:40;98298.28;;;3.57;95.58
18858;BME280;9558;50.178;8.370;2023-03-05T07:56:07;98295.75;;;3.57;96.03
18858;BME280;9558;50.178;8.370;2023-03-05T07:58:33;98295.75;;;3.57;95.52
18858;BME280;9558;50.178;8.370;2023-03-05T08:01:00;98303.81;;;3.62;95.49
18858;BME280;9558;50.178;8.370;2023-03-05T08:03:26;98296.84;;;3.65;95.59
18858;BME280;9558;50.178;8.370;2023-03-05T08:05:54;98298.44;;;3.66;95.62
18858;BME280;9558;50.178;8.370;2023-03-05T08:08:21;98295.66;;;3.69;95.07
18858;BME280;9558;50.178;8.370;2023-03-05T08:10:47;98294.03;;;3.68;94.83
18858;BME280;9558;50.178;8.370;2023-03-05T08:13:14;98292.53;;;3.65;94.12
18858;BME280;9558;50.178;8.370;2023-03-05T08:15:40;98294.97;;;3.67;93.66
18858;BME280;9558;50.178;8.370;2023-03-05T08:18:07;98293.63;;;3.72;93.92
18858;BME280;9558;50.178;8.370;2023-03-05T08:20:34;98286.63;;;3.74;93.53
18858;BME280;9558;50.178;8.370;2023-03-05T08:23:02;98292.31;;;3.78;93.84
18858;BME280;9558;50.178;8.370;2023-03-05T08:25:29;98287.75;;;3.82;93.34
18858;BME280;9558;50.178;8.370;2023-03-05T08:27:55;98286.00;;;3.82;93.56
18858;BME280;9558;50.178;8.370;2023-03-05T08:30:22;98284.81;;;3.86;93.53
18858;BME280;9558;50.178;8.370;2023-03-05T08:32:51;98285.47;;;3.88;92.97
18858;BME280;9558;50.178;8.370;2023-03-05T08:35:18;98287.53;;;3.94;92.65
18858;BME280;9558;50.178;8.370;2023-03-05T08:37:45;98277.28;;;3.94;92.95
18858;BME280;9558;50.178;8.370;2023-03-05T08:40:13;98268.00;;;3.93;91.26
18858;BME280;9558;50.178;8.370;2023-03-05T08:42:42;98258.41;;;3.95;91.27
18858;BME280;9558;50.178;8.370;2023-03-05T08:45:09;98270.28;;;3.96;91.68
18858;BME280;9558;50.178;8.370;2023-03-05T08:47:36;98265.81;;;3.98;91.70
18858;BME280;9558;50.178;8.370;2023-03-05T08:50:03;98259.25;;;4.06;90.94
18858;BME280;9558;50.178;8.370;2023-03-05T08:52:30;98258.72;;;4.02;90.77
18858;BME280;9558;50.178;8.370;2023-03-05T08:54:56;98262.75;;;4.05;90.96
18858;BME280;9558;50.178;8.370;2023-03-05T08:57:25;98264.13;;;4.09;90.49
18858;BME280;9558;50.178;8.370;2023-03-05T08:59:51;98257.66;;;4.14;90.57
18858;BME280;9558;50.178;8.370;2023-03-05T09:02:18;98260.75;;;4.18;90.27
18858;BME280;9558;50.178;8.370;2023-03-05T09:04:44;98263.06;;;4.21;89.40
18858;BME280;9558;50.178;8.370;2023-03-05T09:07:11;98266.84;;;4.27;89.71
18858;BME280;9558;50.178;8.370;2023-03-05T09:09:38;98267.66;;;4.27;87.31
18858;BME280;9558;50.178;8.370;2023-03-05T09:12:05;98262.13;;;4.32;88.36
18858;BME280;9558;50.178;8.370;2023-03-05T09:14:33;98250.81;;;4.35;87.98
18858;BME280;9558;50.178;8.370;2023-03-05T09:17:01;98247.72;;;4.41;88.35
18858;BME280;9558;50.178;8.370;2023-03-05T09:19:27;98250.16;;;4.52;88.64
18858;BME280;9558;50.178;8.370;2023-03-05T09:21:54;98250.69;;;4.56;87.50
18858;BME280;9558;50.178;8.370;2023-03-05T09:24:20;98237.06;;;4.65;87.86
18858;BME280;9558;50.178;8.370;2023-03-05T09:26:47;98247.47;;;4.73;87.34
18858;BME280;9558;50.178;8.370;2023-03-05T09:29:13;98242.44;;;4.81;87.16
18858;BME280;9558;50.178;8.370;2023-03-05T09:31:42;98245.00;;;4.91;85.45
18858;BME280;9558;50.178;8.370;2023-03-05T09:34:09;98248.25;;;4.93;85.68
18858;BME280;9558;50.178;8.370;2023-03-05T09:36:36;98247.84;;;4.98;85.32
18858;BME280;9558;50.178;8.370;2023-03-05T09:39:03;98241.50;;;4.92;83.73
18858;BME280;9558;50.178;8.370;2023-03-05T09:41:35;98240.56;;;4.93;84.72
18858;BME280;9558;50.178;8.370;2023-03-05T09:44:21;98248.25;;;4.93;84.42
18858;BME280;9558;50.178;8.370;2023-03-05T09:46:54;98240.13;;;4.98;83.41
18858;BME280;9558;50.178;8.370;2023-03-05T09:49:31;98237.31;;;4.91;82.28
18858;BME280;9558;50.178;8.370;2023-03-05T09:52:02;98233.41;;;4.87;81.33
18858;BME280;9558;50.178;8.370;2023-03-05T09:54:35;98227.75;;;4.83;81.94
18858;BME280;9558;50.178;8.370;2023-03-05T09:57:04;98231.94;;;4.84;82.95
18858;BME280;9558;50.178;8.370;2023-03-05T09:59:43;98236.09;;;4.76;81.77
18858;BME280;9558;50.178;8.370;2023-03-05T10:02:17;98232.22;;;4.72;82.13
18858;BME280;9558;50.178;8.370;2023-03-05T10:04:47;98233.16;;;4.71;83.26
18858;BME280;9558;50.178;8.370;2023-03-05T10:07:18;98225.75;;;4.67;82.52
18858;BME280;9558;50.178;8.370;2023-03-05T10:09:50;98227.09;;;4.62;82.87
18858;BME280;9558;50.178;8.370;2023-03-05T10:12:24;98227.47;;;4.57;82.69
18858;BME280;9558;50.178;8.370;2023-03-05T10:14:53;98226.16;;;4.53;83.10
18858;BME280;9558;50.178;8.370;2023-03-05T10:20:40;98217.63;;;4.43;83.85
18858;BME280;9558;50.178;8.370;2023-03-05T10:23:22;98218.88;;;4.39;84.08
18858;BME280;9558;50.178;8.370;2023-03-05T10:26:00;98217.50;;;4.35;84.03
18858;BME280;9558;50.178;8.370;2023-03-05T10:28:34;98215.19;;;4.31;84.55
18858;BME280;9558;50.178;8.370;2023-03-05T10:31:15;98209.69;;;4.26;84.65
18858;BME280;9558;50.178;8.370;2023-03-05T10:33:53;98209.41;;;4.20;85.66
18858;BME280;9558;50.178;8.370;2023-03-05T10:36:36;98208.03;;;4.15;85.88
18858;BME280;9558;50.178;8.370;2023-03-05T10:39:33;98194.28;;;4.07;86.20
18858;BME280;9558;50.178;8.370;2023-03-05T10:42:10;98202.91;;;4.06;85.88
18858;BME280;9558;50.178;8.370;2023-03-05T10:44:43;98194.28;;;4.07;88.01
18858;BME280;9558;50.178;8.370;2023-03-05T10:47:15;98187.16;;;4.10;87.85
18858;BME280;9558;50.178;8.370;2023-03-05T10:49:49;98189.19;;;4.17;87.71
18858;BME280;9558;50.178;8.370;2023-03-05T10:52:17;98178.78;;;4.18;88.37
18858;BME280;9558;50.178;8.370;2023-03-05T10:54:46;98181.38;;;4.28;88.42
18858;BME280;9558;50.178;8.370;2023-03-05T10:57:16;98187.72;;;4.33;87.94
18858;BME280;9558;50.178;8.370;2023-03-05T10:59:47;98175.97;;;4.41;87.99
18858;BME280;9558;50.178;8.370;2023-03-05T11:02:14;98169.78;;;4.43;87.53
18858;BME280;9558;50.178;8.370;2023-03-05T11:04:41;98170.97;;;4.49;87.38
18858;BME280;9558;50.178;8.370;2023-03-05T11:07:31;98174.34;;;4.59;87.52
18858;BME280;9558;50.178;8.370;2023-03-05T11:10:05;98162.44;;;4.68;87.40
18858;BME280;9558;50.178;8.370;2023-03-05T11:12:32;98159.88;;;4.78;87.04
18858;BME280;9558;50.178;8.370;2023-03-05T11:15:12;98160.38;;;4.91;86.14
18858;BME280;9558;50.178;8.370;2023-03-05T11:18:04;98150.22;;;4.99;83.55
18858;BME280;9558;50.178;8.370;2023-03-05T11:20:32;98145.72;;;5.11;85.09
18858;BME280;9558;50.178;8.370;2023-03-05T11:23:09;98139.91;;;5.19;83.79
18858;BME280;9558;50.178;8.370;2023-03-05T11:25:50;98128.28;;;5.25;82.39
18858;BME280;9558;50.178;8.370;2023-03-05T11:28:18;98136.06;;;5.33;81.69
18858;BME280;9558;50.178;8.370;2023-03-05T11:30:54;98137.91;;;5.41;80.55
18858;BME280;9558;50.178;8.370;2023-03-05T11:33:23;98133.69;;;5.49;79.56
18858;BME280;9558;50.178;8.370;2023-03-05T11:35:51;98130.13;;;5.60;80.29
18858;BME280;9558;50.178;8.370;2023-03-05T11:38:21;98122.88;;;5.74;79.97
18858;BME280;9558;50.178;8.370;2023-03-05T11:40:50;98123.00;;;5.90;79.39
18858;BME280;9558;50.178;8.370;2023-03-05T11:43:19;98116.75;;;6.02;78.17
18858;BME280;9558;50.178;8.370;2023-03-05T11:45:48;98114.47;;;6.17;77.93
18858;BME280;9558;50.178;8.370;2023-03-05T11:48:19;98104.31;;;6.34;76.47
18858;BME280;9558;50.178;8.370;2023-03-05T11:50:49;98112.41;;;6.39;74.89
18858;BME280;9558;50.178;8.370;2023-03-05T11:53:23;98099.22;;;6.42;74.42
18858;BME280;9558;50.178;8.370;2023-03-05T11:55:55;98112.59;;;6.46;75.34
18858;BME280;9558;50.178;8.370;2023-03-05T11:58:30;98102.91;;;6.39;71.08
18858;BME280;9558;50.178;8.370;2023-03-05T12:00:59;98096.16;;;6.38;73.71
18858;BME280;9558;50.178;8.370;2023-03-05T12:03:30;98112.03;;;6.34;72.82
18858;BME280;9558;50.178;8.370;2023-03-05T12:06:02;98103.50;;;6.33;72.96
18858;BME280;9558;50.178;8.370;2023-03-05T12:08:38;98092.94;;;6.36;73.34
18858;BME280;9558;50.178;8.370;2023-03-05T12:11:14;98085.88;;;6.38;73.34
18858;BME280;9558;50.178;8.370;2023-03-05T12:13:44;98083.53;;;6.27;71.08
18858;BME280;9558;50.178;8.370;2023-03-05T12:16:17;98077.09;;;6.23;71.42
18858;BME280;9558;50.178;8.370;2023-03-05T12:18:57;98076.06;;;6.16;69.92
18858;BME280;9558;50.178;8.370;2023-03-05T12:21:31;98072.84;;;6.14;70.90
18858;BME280;9558;50.178;8.370;2023-03-05T12:24:01;98068.63;;;6.04;71.11
18858;BME280;9558;50.178;8.370;2023-03-05T12:26:54;98068.38;;;5.98;71.35
18858;BME280;9558;50.178;8.370;2023-03-05T12:29:29;98069.75;;;5.92;71.56
18858;BME280;9558;50.178;8.370;2023-03-05T12:31:56;98063.59;;;5.85;72.09
18858;BME280;9558;50.178;8.370;2023-03-05T12:34:45;98055.53;;;5.80;71.55
18858;BME280;9558;50.178;8.370;2023-03-05T12:37:13;98053.94;;;5.79;71.42
18858;BME280;9558;50.178;8.370;2023-03-05T12:39:49;98052.88;;;5.71;70.73
18858;BME280;9558;50.178;8.370;2023-03-05T12:42:50;98046.72;;;5.64;69.68
18858;BME280;9558;50.178;8.370;2023-03-05T12:45:41;98055.16;;;5.57;67.73
18858;BME280;9558;50.178;8.370;2023-03-05T12:48:44;98043.56;;;5.52;70.77
18858;BME280;9558;50.178;8.370;2023-03-05T12:51:26;98032.13;;;5.47;70.91
18858;BME280;9558;50.178;8.370;2023-03-05T12:53:54;98038.34;;;5.44;71.24
18858;BME280;9558;50.178;8.370;2023-03-05T12:56:25;98025.66;;;5.43;70.21
18858;BME280;9558;50.178;8.370;2023-03-05T12:58:57;98014.16;;;5.47;70.59
18858;BME280;9558;50.178;8.370;2023-03-05T13:01:39;98019.28;;;5.47;70.64
18858;BME280;9558;50.178;8.370;2023-03-05T13:04:13;98024.50;;;5.55;70.19
18858;BME280;9558;50.178;8.370;2023-03-05T13:06:41;98014.59;;;5.60;70.38
18858;BME280;9558;50.178;8.370;2023-03-05T13:09:15;98009.97;;;5.64;70.41
18858;BME280;9558;50.178;8.370;2023-03-05T13:11:46;98010.19;;;5.70;70.46
18858;BME280;9558;50.178;8.370;2023-03-05T13:14:32;98009.09;;;5.73;69.64
18858;BME280;9558;50.178;8.370;2023-03-05T13:17:00;97999.03;;;5.80;70.35
18858;BME280;9558;50.178;8.370;2023-03-05T13:19:27;97999.69;;;5.82;69.60
18858;BME280;9558;50.178;8.370;2023-03-05T13:21:59;97998.72;;;5.83;69.26
18858;BME280;9558;50.178;8.370;2023-03-05T13:24:27;97990.38;;;5.81;69.62
18858;BME280;9558;50.178;8.370;2023-03-05T13:26:55;97994.19;;;5.77;68.28
18858;BME280;9558;50.178;8.370;2023-03-05T13:29:24;97985.84;;;5.75;69.24
18858;BME280;9558;50.178;8.370;2023-03-05T13:31:54;97986.78;;;5.74;70.00
18858;BME280;9558;50.178;8.370;2023-03-05T13:34:23;97989.66;;;5.70;67.12